createdAt,value
2023-03-19T00:00:27.345Z,665.00
2023-03-19T00:04:27.429Z,665.00
2023-03-19T00:08:27.398Z,666.00
2023-03-19T00:12:27.389Z,666.00
2023-03-19T00:16:27.469Z,662.00
2023-03-19T00:20:27.473Z,662.00
2023-03-19T00:24:27.506Z,658.00
2023-03-19T00:28:27.539Z,660.00
2023-03-19T00:32:27.621Z,656.00
2023-03-19T00:36:27.599Z,654.00
2023-03-19T00:40:27.684Z,653.00
2023-03-19T00:44:27.665Z,652.00
2023-03-19T00:48:27.711Z,657.00
2023-03-19T00:52:27.768Z,657.00
2023-03-19T00:56:27.716Z,660.00
2023-03-19T01:00:27.809Z,660.00
2023-03-19T01:04:27.808Z,658.00
2023-03-19T01:08:27.862Z,657.00
2023-03-19T01:12:27.880Z,660.00
2023-03-19T01:16:27.960Z,659.00
2023-03-19T01:20:27.999Z,659.00
2023-03-19T01:24:27.968Z,654.00
2023-03-19T01:28:28.016Z,651.00
2023-03-19T01:32:28.024Z,649.00
2023-03-19T01:36:28.078Z,650.00
2023-03-19T01:40:28.112Z,653.00
2023-03-19T01:44:28.162Z,647.00
2023-03-19T01:48:28.203Z,650.00
2023-03-19T01:52:28.279Z,648.00
2023-03-19T01:56:28.414Z,646.00
2023-03-19T02:00:28.349Z,641.00
2023-03-19T02:04:28.407Z,644.00
2023-03-19T02:08:28.384Z,646.00
2023-03-19T02:12:28.447Z,647.00
2023-03-19T02:16:28.472Z,648.00
2023-03-19T02:20:28.477Z,646.00
2023-03-19T02:24:28.572Z,646.00
2023-03-19T02:28:28.601Z,642.00
2023-03-19T02:32:28.633Z,640.00
2023-03-19T02:36:28.707Z,642.00
2023-03-19T02:40:28.704Z,641.00
2023-03-19T02:44:28.728Z,642.00
2023-03-19T02:48:28.838Z,642.00
2023-03-19T02:52:28.854Z,641.00
2023-03-19T02:56:28.901Z,641.00
2023-03-19T03:00:28.970Z,640.00
2023-03-19T03:04:29.004Z,645.00
2023-03-19T03:08:29.073Z,641.00
2023-03-19T03:12:29.096Z,645.00
2023-03-19T03:16:29.190Z,642.00
2023-03-19T03:20:29.206Z,639.00
2023-03-19T03:24:29.338Z,637.00
2023-03-19T03:28:29.230Z,640.00
2023-03-19T03:32:29.287Z,639.00
2023-03-19T03:36:29.294Z,637.00
2023-03-19T03:40:29.402Z,635.00
2023-03-19T03:44:29.431Z,635.00
2023-03-19T03:48:29.531Z,635.00
2023-03-19T03:52:29.508Z,635.00
2023-03-19T03:56:29.601Z,638.00
2023-03-19T04:00:29.629Z,638.00
2023-03-19T04:04:29.666Z,633.00
2023-03-19T04:08:29.690Z,634.00
2023-03-19T04:12:29.737Z,634.00
2023-03-19T04:16:29.822Z,638.00
2023-03-19T04:20:29.798Z,638.00
2023-03-19T04:24:29.860Z,640.00
2023-03-19T04:28:29.881Z,650.00
2023-03-19T04:32:29.958Z,644.00
2023-03-19T04:36:30.002Z,634.00
2023-03-19T04:40:29.977Z,633.00
2023-03-19T04:44:30.024Z,632.00
2023-03-19T04:48:30.071Z,630.00
2023-03-19T04:52:30.138Z,626.00
2023-03-19T04:56:30.129Z,627.00
2023-03-19T05:00:30.200Z,627.00
2023-03-19T05:04:30.251Z,626.00
2023-03-19T05:08:30.267Z,625.00
2023-03-19T05:12:30.307Z,629.00
2023-03-19T05:16:30.372Z,628.00
2023-03-19T05:20:30.494Z,625.00
2023-03-19T05:24:30.499Z,621.00
2023-03-19T05:28:30.586Z,621.00
2023-03-19T05:32:30.646Z,623.00
2023-03-19T05:36:30.640Z,628.00
2023-03-19T05:40:30.694Z,625.00
2023-03-19T05:44:30.721Z,622.00
2023-03-19T05:48:30.746Z,623.00
2023-03-19T05:52:30.774Z,619.00
2023-03-19T05:56:30.767Z,623.00
2023-03-19T06:00:30.852Z,624.00
2023-03-19T06:04:30.930Z,624.00
2023-03-19T06:08:30.901Z,626.00
2023-03-19T06:12:30.984Z,625.00
2023-03-19T06:16:31.081Z,624.00
2023-03-19T06:20:31.068Z,630.00
2023-03-19T06:24:31.111Z,631.00
2023-03-19T06:28:31.125Z,631.00
2023-03-19T06:32:31.220Z,630.00
2023-03-19T06:36:31.212Z,628.00
2023-03-19T06:40:31.244Z,625.00
2023-03-19T06:44:31.339Z,630.00
2023-03-19T06:48:31.357Z,626.00
2023-03-19T06:52:31.422Z,624.00
2023-03-19T06:56:31.481Z,625.00
2023-03-19T07:00:31.617Z,618.00
2023-03-19T07:04:31.524Z,624.00
2023-03-19T07:08:31.593Z,623.00
2023-03-19T07:12:31.621Z,622.00
2023-03-19T07:16:31.603Z,622.00
2023-03-19T07:20:31.757Z,624.00
2023-03-19T07:24:31.671Z,618.00
2023-03-19T07:28:31.728Z,621.00
2023-03-19T07:32:31.832Z,622.00
2023-03-19T07:36:31.786Z,622.00
2023-03-19T07:40:32.149Z,624.00
2023-03-19T07:44:31.849Z,621.00
2023-03-19T07:48:31.884Z,624.00
2023-03-19T07:52:31.985Z,627.00
2023-03-19T07:56:32.064Z,623.00
2023-03-19T08:00:32.544Z,624.00
2023-03-19T08:04:32.214Z,622.00
2023-03-19T08:08:32.315Z,624.00
2023-03-19T08:12:32.375Z,624.00
2023-03-19T08:16:32.470Z,621.00
2023-03-19T08:20:32.804Z,625.00
2023-03-19T08:24:32.639Z,625.00
2023-03-19T08:28:32.745Z,627.00
2023-03-19T08:32:33.311Z,626.00
2023-03-19T08:36:33.033Z,624.00
2023-03-19T08:40:33.310Z,623.00
2023-03-19T08:44:33.288Z,622.00
2023-03-19T08:48:33.387Z,629.00
2023-03-19T08:52:33.579Z,624.00
2023-03-19T08:56:33.742Z,626.00
2023-03-19T09:00:34.019Z,627.00
2023-03-19T09:04:33.999Z,627.00
2023-03-19T09:08:34.145Z,631.00
2023-03-19T09:12:34.273Z,624.00
2023-03-19T09:16:34.433Z,627.00
2023-03-19T09:20:34.624Z,621.00
2023-03-19T09:24:34.759Z,624.00
2023-03-19T09:28:34.892Z,627.00
2023-03-19T09:32:35.043Z,623.00
2023-03-19T09:36:35.134Z,622.00
2023-03-19T09:40:35.270Z,623.00
2023-03-19T09:44:35.429Z,626.00
2023-03-19T09:48:35.530Z,627.00
2023-03-19T09:52:35.709Z,624.00
2023-03-19T09:56:35.825Z,623.00
2023-03-19T10:00:36.041Z,623.00
2023-03-19T10:04:36.180Z,621.00
2023-03-19T10:08:36.396Z,620.00
2023-03-19T10:12:36.570Z,621.00
2023-03-19T10:16:36.789Z,621.00
2023-03-19T10:20:36.989Z,620.00
2023-03-19T10:24:37.207Z,619.00
2023-03-19T10:28:37.347Z,621.00
2023-03-19T10:32:37.636Z,618.00
2023-03-19T10:36:37.734Z,622.00
2023-03-19T10:40:37.934Z,623.00
2023-03-19T10:44:37.886Z,622.00
2023-03-19T10:48:37.893Z,621.00
2023-03-19T10:52:37.846Z,619.00
2023-03-19T10:56:37.775Z,617.00
2023-03-19T11:00:37.765Z,614.00
2023-03-19T11:04:37.761Z,613.00
2023-03-19T11:08:37.760Z,614.00
2023-03-19T11:12:37.716Z,612.00
2023-03-19T11:16:37.625Z,616.00
2023-03-19T11:20:37.592Z,615.00
2023-03-19T11:24:37.614Z,615.00
2023-03-19T11:28:37.858Z,619.00
2023-03-19T11:32:38.162Z,617.00
2023-03-19T11:36:38.235Z,614.00
2023-03-19T11:40:39.090Z,613.00
2023-03-19T11:44:38.583Z,614.00
2023-03-19T11:48:38.840Z,615.00
2023-03-19T11:52:39.066Z,609.00
2023-03-19T11:56:39.242Z,611.00
2023-03-19T12:00:39.498Z,615.00
2023-03-19T12:04:39.582Z,612.00
2023-03-19T12:08:39.747Z,613.00
2023-03-19T12:12:39.848Z,614.00
2023-03-19T12:16:45.909Z,617.00
2023-03-19T12:20:41.007Z,614.00
2023-03-19T12:24:39.947Z,613.00
2023-03-19T12:28:40.010Z,615.00
2023-03-19T12:32:40.210Z,618.00
2023-03-19T12:36:40.278Z,614.00
2023-03-19T12:40:40.415Z,612.00
2023-03-19T12:44:40.519Z,614.00
2023-03-19T12:48:40.704Z,615.00
2023-03-19T12:52:40.822Z,610.00
2023-03-19T12:56:40.883Z,605.00
2023-03-19T13:00:41.012Z,605.00
2023-03-19T13:04:41.136Z,606.00
2023-03-19T13:08:41.145Z,610.00
2023-03-19T13:12:41.223Z,609.00
2023-03-19T13:16:41.326Z,614.00
2023-03-19T13:20:41.466Z,612.00
2023-03-19T13:24:41.533Z,611.00
2023-03-19T13:28:41.627Z,615.00
2023-03-19T13:32:41.841Z,615.00
2023-03-19T13:36:41.781Z,613.00
2023-03-19T13:40:41.900Z,614.00
2023-03-19T13:44:42.023Z,610.00
2023-03-19T13:48:42.112Z,613.00
2023-03-19T13:52:42.246Z,611.00
2023-03-19T13:56:42.318Z,616.00
2023-03-19T14:00:42.494Z,614.00
2023-03-19T14:04:42.583Z,612.00
2023-03-19T14:08:42.712Z,610.00
2023-03-19T14:12:42.893Z,609.00
2023-03-19T14:16:43.051Z,610.00
2023-03-19T14:20:43.387Z,610.00
2023-03-19T14:24:58.778Z,610.00
2023-03-19T14:28:44.225Z,612.00
2023-03-19T14:32:43.156Z,608.00
2023-03-19T14:36:43.192Z,616.00
2023-03-19T14:40:43.339Z,617.00
2023-03-19T14:44:43.429Z,614.00
2023-03-19T14:48:44.157Z,613.00
2023-03-19T14:52:43.730Z,615.00
2023-03-19T14:56:43.917Z,614.00
2023-03-19T15:00:44.112Z,612.00
2023-03-19T15:04:44.206Z,613.00
2023-03-19T15:08:44.332Z,618.00
2023-03-19T15:12:44.451Z,621.00
2023-03-19T15:16:44.736Z,614.00
2023-03-19T15:20:44.767Z,615.00
2023-03-19T15:24:44.911Z,616.00
2023-03-19T15:28:45.791Z,612.00
2023-03-19T15:33:02.938Z,611.00
2023-03-19T15:36:46.236Z,614.00
2023-03-19T15:40:45.210Z,613.00
2023-03-19T15:44:45.301Z,615.00
2023-03-19T15:48:45.477Z,613.00
2023-03-19T15:52:45.685Z,614.00
2023-03-19T15:56:45.834Z,612.00
2023-03-19T16:00:46.015Z,612.00
2023-03-19T16:05:14.011Z,615.00
2023-03-19T16:08:47.136Z,616.00
2023-03-19T16:12:46.143Z,617.00
2023-03-19T16:16:46.151Z,614.00
2023-03-19T16:20:46.347Z,614.00
2023-03-19T16:24:46.538Z,615.00
2023-03-19T16:28:46.710Z,619.00
2023-03-19T16:32:46.937Z,613.00
2023-03-19T16:36:47.100Z,617.00
2023-03-19T16:40:47.313Z,612.00
2023-03-19T16:44:47.459Z,614.00
2023-03-19T16:48:47.669Z,614.00
2023-03-19T16:52:47.877Z,611.00
2023-03-19T16:56:48.076Z,611.00
2023-03-19T17:00:48.336Z,612.00
2023-03-19T17:04:48.659Z,610.00
2023-03-19T17:08:48.687Z,608.00
2023-03-19T17:12:48.933Z,606.00
2023-03-19T17:16:49.120Z,609.00
2023-03-19T17:20:49.303Z,609.00
2023-03-19T17:24:49.509Z,612.00
2023-03-19T17:28:49.741Z,611.00
2023-03-19T17:32:49.912Z,610.00
2023-03-19T17:36:49.637Z,607.00
2023-03-19T17:40:49.602Z,607.00
2023-03-19T17:44:49.618Z,607.00
2023-03-19T17:48:49.554Z,609.00
2023-03-19T17:52:49.668Z,608.00
2023-03-19T17:56:50.272Z,606.00
2023-03-19T18:00:49.530Z,608.00
2023-03-19T18:04:52.013Z,599.00
2023-03-19T18:08:49.380Z,602.00
2023-03-19T18:12:49.318Z,597.00
2023-03-19T18:16:49.431Z,593.00
2023-03-19T18:20:49.250Z,598.00
2023-03-19T18:24:49.238Z,599.00
2023-03-19T18:28:49.175Z,600.00
2023-03-19T18:32:49.256Z,597.00
2023-03-19T18:36:49.081Z,603.00
2023-03-19T18:40:49.048Z,604.00
2023-03-19T18:44:48.991Z,601.00
2023-03-19T18:48:48.973Z,601.00
2023-03-19T18:52:48.964Z,602.00
2023-03-19T18:56:48.905Z,601.00
2023-03-19T19:00:49.117Z,605.00
2023-03-19T19:04:49.294Z,604.00
2023-03-19T19:08:49.269Z,600.00
2023-03-19T19:12:52.316Z,596.00
2023-03-19T19:16:49.466Z,600.00
2023-03-19T19:20:49.341Z,607.00
2023-03-19T19:24:49.353Z,606.00
2023-03-19T19:28:49.257Z,600.00
2023-03-19T19:32:49.316Z,596.00
2023-03-19T19:36:49.217Z,596.00
2023-03-19T19:40:49.143Z,595.00
2023-03-19T19:44:49.103Z,593.00
2023-03-19T19:48:49.142Z,590.00
2023-03-19T19:52:49.069Z,590.00
2023-03-19T19:56:49.018Z,591.00
2023-03-19T20:01:02.239Z,588.00
2023-03-19T20:04:49.989Z,588.00
2023-03-19T20:08:48.878Z,588.00
2023-03-19T20:12:48.881Z,587.00
2023-03-19T20:16:48.869Z,586.00
2023-03-19T20:20:48.925Z,592.00
2023-03-19T20:24:51.136Z,592.00
2023-03-19T20:28:48.894Z,591.00
2023-03-19T20:32:49.375Z,591.00
2023-03-19T20:36:48.840Z,590.00
2023-03-19T20:40:48.769Z,596.00
2023-03-19T20:44:48.774Z,594.00
2023-03-19T20:48:48.689Z,594.00
2023-03-19T20:52:48.715Z,592.00
2023-03-19T20:56:48.650Z,589.00
2023-03-19T21:00:48.573Z,591.00
2023-03-19T21:04:48.582Z,590.00
2023-03-19T21:08:48.503Z,593.00
2023-03-19T21:12:48.462Z,586.00
2023-03-19T21:16:48.442Z,588.00
2023-03-19T21:20:48.410Z,591.00
2023-03-19T21:24:48.406Z,588.00
2023-03-19T21:28:48.346Z,586.00
2023-03-19T21:32:48.316Z,590.00
2023-03-19T21:36:48.290Z,586.00
2023-03-19T21:40:48.235Z,585.00
2023-03-19T21:44:48.169Z,584.00
2023-03-19T21:48:48.214Z,587.00
2023-03-19T21:52:58.846Z,590.00
2023-03-19T21:56:49.085Z,586.00
2023-03-19T22:00:48.115Z,587.00
2023-03-19T22:04:47.993Z,590.00
2023-03-19T22:08:48.034Z,586.00
2023-03-19T22:12:48.377Z,588.00
2023-03-19T22:16:48.317Z,593.00
2023-03-19T22:20:48.047Z,585.00
2023-03-19T22:24:48.110Z,586.00
2023-03-19T22:28:48.148Z,589.00
2023-03-19T22:32:48.274Z,585.00
2023-03-19T22:36:48.210Z,587.00
2023-03-19T22:40:48.242Z,592.00
2023-03-19T22:44:48.310Z,591.00
2023-03-19T22:48:48.368Z,588.00
2023-03-19T22:52:48.438Z,589.00
2023-03-19T22:56:48.436Z,590.00
2023-03-19T23:00:48.530Z,589.00
2023-03-19T23:04:48.610Z,589.00
2023-03-19T23:08:48.660Z,589.00
2023-03-19T23:12:48.663Z,585.00
2023-03-19T23:16:48.739Z,585.00
2023-03-19T23:20:48.718Z,582.00
2023-03-19T23:24:48.763Z,578.00
2023-03-19T23:28:48.807Z,584.00
2023-03-19T23:32:49.058Z,584.00
2023-03-19T23:36:48.936Z,585.00
2023-03-19T23:40:48.955Z,583.00
2023-03-19T23:44:49.032Z,583.00
2023-03-19T23:48:49.084Z,582.00
2023-03-19T23:52:49.127Z,585.00
2023-03-19T23:56:51.044Z,581.00
